createdAt,value
2022-11-02T00:01:43.565Z,71.78
2022-11-02T00:04:11.286Z,71.52
2022-11-02T00:06:38.682Z,71.35
2022-11-02T00:09:05.961Z,71.64
2022-11-02T00:11:33.519Z,72.41
2022-11-02T00:14:00.766Z,71.53
2022-11-02T00:16:28.083Z,71.46
2022-11-02T00:18:59.383Z,71.54
2022-11-02T00:21:27.771Z,72.13
2022-11-02T00:23:58.542Z,71.56
2022-11-02T00:26:29.870Z,71.30
2022-11-02T00:28:58.120Z,70.90
2022-11-02T00:31:25.399Z,71.32
2022-11-02T00:33:52.887Z,70.97
2022-11-02T00:36:20.931Z,70.61
2022-11-02T00:38:48.190Z,71.16
2022-11-02T00:41:17.170Z,71.55
2022-11-02T00:43:44.432Z,71.30
2022-11-02T00:46:11.686Z,71.16
2022-11-02T00:48:38.959Z,70.99
2022-11-02T00:51:06.414Z,71.58
2022-11-02T00:53:33.685Z,71.00
2022-11-02T00:56:00.978Z,71.00
2022-11-02T00:58:28.238Z,71.00
2022-11-02T01:00:56.556Z,71.20
2022-11-02T01:03:25.094Z,71.22
2022-11-02T01:05:52.346Z,71.32
2022-11-02T01:08:19.605Z,71.32
2022-11-02T01:10:48.342Z,71.77
2022-11-02T01:13:16.318Z,71.61
2022-11-02T01:15:43.571Z,71.74
2022-11-02T01:18:10.847Z,71.48
2022-11-02T01:20:38.150Z,71.47
2022-11-02T01:23:05.476Z,71.37
2022-11-02T01:25:33.536Z,71.38
2022-11-02T01:28:02.010Z,71.56
2022-11-02T01:30:29.531Z,71.71
2022-11-02T01:32:56.797Z,72.07
2022-11-02T01:35:24.062Z,72.26
2022-11-02T01:37:51.326Z,71.77
2022-11-02T01:40:19.395Z,71.92
2022-11-02T01:42:46.668Z,71.77
2022-11-02T01:45:15.007Z,71.72
2022-11-02T01:47:49.212Z,72.11
2022-11-02T01:50:27.392Z,71.55
2022-11-02T01:52:54.982Z,71.23
2022-11-02T01:55:30.291Z,71.19
2022-11-02T01:58:10.666Z,71.59
2022-11-02T02:00:39.338Z,71.35
2022-11-02T02:03:19.183Z,71.51
2022-11-02T02:06:00.811Z,71.02
2022-11-02T02:08:29.504Z,70.97
2022-11-02T02:10:58.911Z,71.49
2022-11-02T02:13:28.486Z,71.55
2022-11-02T02:16:52.976Z,71.58
2022-11-02T02:20:07.949Z,71.63
2022-11-02T02:24:03.887Z,71.78
2022-11-02T02:27:35.542Z,71.43
2022-11-02T02:30:10.980Z,71.66
2022-11-02T02:33:14.061Z,71.64
2022-11-02T02:36:00.036Z,71.52
2022-11-02T02:39:04.014Z,71.84
2022-11-02T02:41:47.730Z,71.64
2022-11-02T02:44:23.891Z,71.64
2022-11-02T02:47:05.023Z,72.19
2022-11-02T02:49:53.438Z,72.22
2022-11-02T02:52:23.916Z,71.85
2022-11-02T02:54:55.907Z,71.87
2022-11-02T02:57:26.630Z,72.88
2022-11-02T02:59:55.112Z,71.89
2022-11-02T03:02:34.256Z,71.76
2022-11-02T03:05:01.826Z,72.31
2022-11-02T03:07:34.763Z,72.94
2022-11-02T03:10:22.474Z,72.70
2022-11-02T03:13:32.410Z,72.70
2022-11-02T03:16:49.487Z,72.00
2022-11-02T03:19:45.329Z,72.25
2022-11-02T03:23:07.408Z,72.46
2022-11-02T03:26:36.210Z,72.26
2022-11-02T03:29:33.686Z,72.23
2022-11-02T03:32:20.779Z,72.48
2022-11-02T03:35:02.572Z,72.48
2022-11-02T03:37:55.968Z,72.73
2022-11-02T03:40:40.583Z,72.33
2022-11-02T03:43:08.271Z,72.93
2022-11-02T03:45:54.197Z,72.37
2022-11-02T03:48:28.239Z,72.54
2022-11-02T03:50:58.191Z,72.07
2022-11-02T03:53:42.629Z,72.65
2022-11-02T03:56:23.007Z,72.80
2022-11-02T03:58:50.551Z,72.79
2022-11-02T04:01:20.780Z,72.93
2022-11-02T04:03:48.667Z,72.59
2022-11-02T04:06:17.215Z,72.38
2022-11-02T04:08:49.179Z,72.90
2022-11-02T04:11:35.426Z,72.30
2022-11-02T04:14:21.435Z,73.02
2022-11-02T04:16:48.707Z,72.49
2022-11-02T04:19:27.888Z,72.63
2022-11-02T04:22:16.634Z,72.61
2022-11-02T04:25:02.510Z,72.76
2022-11-02T04:27:29.818Z,73.36
2022-11-02T04:29:57.378Z,73.37
2022-11-02T04:32:43.425Z,73.19
2022-11-02T04:35:11.019Z,72.87
2022-11-02T04:38:03.213Z,73.12
2022-11-02T04:40:30.883Z,72.70
2022-11-02T04:42:58.138Z,73.61
2022-11-02T04:45:25.583Z,73.06
2022-11-02T04:47:52.966Z,72.80
2022-11-02T04:50:20.225Z,72.53
2022-11-02T04:52:47.519Z,73.13
2022-11-02T04:55:14.806Z,73.22
2022-11-02T04:57:45.891Z,72.91
2022-11-02T05:00:15.556Z,72.93
2022-11-02T05:02:43.929Z,73.03
2022-11-02T05:05:12.552Z,73.18
2022-11-02T05:07:39.919Z,72.51
2022-11-02T05:10:07.910Z,73.15
2022-11-02T05:12:35.210Z,73.08
2022-11-02T05:15:04.814Z,72.92
2022-11-02T05:17:32.190Z,72.93
2022-11-02T05:19:59.454Z,73.90
2022-11-02T05:22:26.727Z,73.60
2022-11-02T05:24:54.031Z,73.50
2022-11-02T05:27:21.386Z,72.90
2022-11-02T05:29:48.655Z,73.43
2022-11-02T05:32:15.915Z,73.80
2022-11-02T05:34:44.991Z,73.33
2022-11-02T05:37:12.267Z,73.93
2022-11-02T05:39:39.582Z,72.65
2022-11-02T05:42:06.879Z,72.96
2022-11-02T05:44:34.172Z,73.03
2022-11-02T05:47:01.613Z,72.61
2022-11-02T05:49:29.164Z,72.99
2022-11-02T05:51:56.447Z,73.15
2022-11-02T05:54:24.522Z,73.75
2022-11-02T05:56:51.787Z,73.40
2022-11-02T05:59:19.051Z,73.90
2022-11-02T06:01:46.450Z,73.15
2022-11-02T06:04:13.842Z,73.09
2022-11-02T06:06:42.615Z,72.61
2022-11-02T06:09:10.002Z,73.03
2022-11-02T06:11:37.305Z,72.32
2022-11-02T06:14:05.566Z,71.14
2022-11-02T06:16:32.871Z,71.82
2022-11-02T06:19:00.226Z,72.42
2022-11-02T06:21:28.323Z,72.17
2022-11-02T06:23:55.627Z,72.50
2022-11-02T06:26:22.890Z,72.77
2022-11-02T06:28:50.191Z,73.44
2022-11-02T06:31:17.489Z,72.69
2022-11-02T06:33:45.750Z,73.95
2022-11-02T06:36:14.727Z,73.88
2022-11-02T06:38:42.159Z,73.75
2022-11-02T06:41:10.335Z,73.73
2022-11-02T06:43:38.539Z,73.58
2022-11-02T06:46:06.317Z,74.11
2022-11-02T06:48:35.645Z,73.64
2022-11-02T06:51:06.234Z,73.76
2022-11-02T06:53:33.887Z,73.67
2022-11-02T06:56:01.399Z,73.93
2022-11-02T06:58:29.005Z,73.43
2022-11-02T07:01:09.954Z,73.67
2022-11-02T07:03:37.336Z,72.49
2022-11-02T07:06:08.417Z,71.94
2022-11-02T07:08:40.231Z,72.52
2022-11-02T07:11:07.511Z,72.22
2022-11-02T07:13:34.759Z,71.83
2022-11-02T07:16:02.046Z,72.86
2022-11-02T07:18:29.305Z,72.69
2022-11-02T07:20:59.884Z,73.25
2022-11-02T07:23:27.439Z,73.31
2022-11-02T07:25:54.838Z,73.02
2022-11-02T07:28:22.234Z,72.60
2022-11-02T07:30:50.365Z,72.77
2022-11-02T07:33:17.767Z,72.35
2022-11-02T07:35:45.088Z,72.71
2022-11-02T07:38:14.060Z,71.84
2022-11-02T07:40:41.445Z,72.06
2022-11-02T07:43:09.137Z,71.00
2022-11-02T07:45:36.763Z,70.90
2022-11-02T07:48:04.184Z,70.61
2022-11-02T07:50:31.448Z,70.60
2022-11-02T07:52:59.302Z,70.43
2022-11-02T07:55:30.883Z,69.49
2022-11-02T07:58:14.119Z,68.03
2022-11-02T08:00:42.616Z,68.13
2022-11-02T08:03:11.965Z,67.54
2022-11-02T08:05:43.169Z,67.28
2022-11-02T08:08:23.682Z,68.09
2022-11-02T08:10:52.647Z,67.50
2022-11-02T08:13:26.025Z,66.33
2022-11-02T08:15:54.900Z,66.72
2022-11-02T08:18:26.932Z,67.32
2022-11-02T08:20:58.662Z,66.76
2022-11-02T08:23:27.234Z,66.78
2022-11-02T08:25:55.578Z,66.79
2022-11-02T08:28:31.632Z,67.45
2022-11-02T08:30:59.742Z,67.49
2022-11-02T08:33:27.378Z,65.37
2022-11-02T08:35:54.818Z,64.51
2022-11-02T08:38:22.913Z,64.45
2022-11-02T08:40:50.253Z,64.94
2022-11-02T08:43:17.640Z,64.53
2022-11-02T08:46:14.384Z,64.88
2022-11-02T08:48:34.012Z,65.62
2022-11-02T08:51:01.380Z,64.88
2022-11-02T08:53:28.825Z,63.98
2022-11-02T08:55:59.346Z,62.83
2022-11-02T08:58:26.692Z,62.59
2022-11-02T09:00:55.121Z,63.21
2022-11-02T09:03:26.762Z,62.34
2022-11-02T09:06:00.998Z,62.44
2022-11-02T09:08:29.737Z,61.93
2022-11-02T09:11:04.642Z,61.25
2022-11-02T09:13:32.005Z,61.02
2022-11-02T09:16:00.530Z,61.18
2022-11-02T09:18:28.048Z,60.43
2022-11-02T09:20:55.837Z,60.76
2022-11-02T09:23:24.183Z,60.18
2022-11-02T09:25:51.537Z,60.73
2022-11-02T09:28:19.691Z,60.85
2022-11-02T09:30:47.204Z,60.35
2022-11-02T09:33:14.513Z,59.96
2022-11-02T09:35:49.079Z,60.13
2022-11-02T09:38:21.015Z,60.00
2022-11-02T09:40:59.479Z,59.19
2022-11-02T09:44:01.863Z,59.31
2022-11-02T09:46:40.288Z,59.50
2022-11-02T09:49:24.219Z,59.40
2022-11-02T09:51:56.825Z,59.22
2022-11-02T09:54:50.159Z,59.20
2022-11-02T09:57:32.999Z,58.91
2022-11-02T10:00:00.537Z,59.33
2022-11-02T10:03:12.461Z,58.19
2022-11-02T10:06:19.292Z,58.03
2022-11-02T10:09:16.408Z,58.29
2022-11-02T10:12:13.261Z,58.06
2022-11-02T10:15:17.168Z,57.19
2022-11-02T10:17:46.066Z,57.99
2022-11-02T10:20:50.932Z,56.93
2022-11-02T10:23:46.071Z,56.93
2022-11-02T10:26:33.921Z,57.01
2022-11-02T10:29:41.345Z,56.52
2022-11-02T10:32:14.483Z,54.84
2022-11-02T10:34:43.745Z,55.33
2022-11-02T10:38:17.276Z,54.63
2022-11-02T10:41:18.236Z,54.27
2022-11-02T10:44:27.894Z,54.38
2022-11-02T10:47:24.145Z,54.85
2022-11-02T10:50:44.657Z,54.84
2022-11-02T10:53:41.221Z,55.45
2022-11-02T10:56:32.076Z,54.89
2022-11-02T10:59:23.766Z,55.25
2022-11-02T11:01:57.796Z,55.45
2022-11-02T11:04:29.145Z,55.45
2022-11-02T11:07:04.510Z,54.31
2022-11-02T11:09:48.304Z,54.60
2022-11-02T11:12:37.419Z,53.71
2022-11-02T11:20:44.579Z,53.60
2022-11-02T11:23:25.753Z,52.82
2022-11-02T11:26:06.722Z,51.85
2022-11-02T11:28:57.939Z,50.79
2022-11-02T11:31:25.907Z,50.36
2022-11-02T11:34:00.254Z,49.92
2022-11-02T11:36:36.407Z,48.55
2022-11-02T11:39:29.533Z,48.06
2022-11-02T11:41:58.319Z,47.96
2022-11-02T11:44:26.321Z,47.71
2022-11-02T11:46:58.628Z,47.19
2022-11-02T11:50:08.074Z,46.69
2022-11-02T11:52:34.612Z,45.91
2022-11-02T11:55:28.140Z,46.72
2022-11-02T11:58:31.159Z,45.40
2022-11-02T12:01:14.529Z,43.48
2022-11-02T12:04:01.584Z,44.41
2022-11-02T12:06:58.132Z,44.58
2022-11-02T12:09:46.594Z,44.09
2022-11-02T12:13:01.057Z,43.58
2022-11-02T12:16:03.111Z,42.85
2022-11-02T12:19:33.857Z,42.95
2022-11-02T12:22:43.790Z,41.52
2022-11-02T12:25:46.912Z,41.87
2022-11-02T12:28:31.688Z,40.93
2022-11-02T12:31:40.176Z,41.16
2022-11-02T12:35:23.161Z,40.93
2022-11-02T12:38:51.128Z,41.39
2022-11-02T12:42:03.881Z,39.92
2022-11-02T12:45:22.687Z,40.17
2022-11-02T12:48:06.279Z,41.53
2022-11-02T12:51:24.555Z,40.59
2022-11-02T12:54:14.778Z,40.50
2022-11-02T12:56:54.512Z,43.60
2022-11-02T12:59:34.750Z,41.16
2022-11-02T13:02:55.066Z,42.05
2022-11-02T13:05:41.182Z,42.99
2022-11-02T13:08:25.296Z,44.08
2022-11-02T13:11:04.454Z,44.03
2022-11-02T13:13:44.233Z,44.64
2022-11-02T13:16:14.604Z,44.73
2022-11-02T13:18:55.175Z,43.35
2022-11-02T13:21:44.139Z,43.81
2022-11-02T13:24:23.915Z,44.29
2022-11-02T13:26:57.419Z,44.76
2022-11-02T13:29:50.786Z,45.34
2022-11-02T13:33:00.662Z,46.37
2022-11-02T13:35:38.177Z,47.20
2022-11-02T13:38:46.480Z,46.48
2022-11-02T13:42:06.519Z,46.46
2022-11-02T13:45:22.767Z,46.63
2022-11-02T13:48:24.991Z,46.12
2022-11-02T13:50:57.660Z,47.41
2022-11-02T13:53:45.123Z,45.87
2022-11-02T13:56:22.697Z,45.56
2022-11-02T13:59:03.948Z,46.87
2022-11-02T14:01:37.309Z,45.24
2022-11-02T14:04:10.414Z,45.73
2022-11-02T14:07:09.365Z,45.25
2022-11-02T14:09:42.850Z,45.93
2022-11-02T14:12:29.500Z,46.35
2022-11-02T14:15:15.429Z,47.31
2022-11-02T14:17:54.944Z,47.50
2022-11-02T14:20:47.334Z,47.05
2022-11-02T14:23:14.531Z,46.70
2022-11-02T14:25:53.874Z,47.01
2022-11-02T14:28:24.735Z,46.52
2022-11-02T14:31:06.256Z,46.78
2022-11-02T14:34:32.787Z,47.29
2022-11-02T14:37:48.562Z,48.18
2022-11-02T14:40:54.311Z,48.82
2022-11-02T14:44:20.574Z,48.66
2022-11-02T14:47:07.006Z,48.50
2022-11-02T14:49:57.021Z,48.57
2022-11-02T14:52:35.899Z,48.44
2022-11-02T14:55:28.213Z,48.49
2022-11-02T14:58:20.313Z,47.93
2022-11-02T15:00:50.653Z,47.78
2022-11-02T15:03:29.136Z,47.54
2022-11-02T15:06:25.504Z,47.52
2022-11-02T15:09:04.373Z,47.99
2022-11-02T15:12:02.611Z,47.64
2022-11-02T15:14:35.523Z,47.53
2022-11-02T15:17:24.203Z,47.31
2022-11-02T15:20:14.366Z,47.57
2022-11-02T15:22:54.752Z,47.70
2022-11-02T15:25:37.318Z,48.31
2022-11-02T15:28:22.419Z,48.16
2022-11-02T15:30:59.798Z,48.46
2022-11-02T15:33:44.224Z,48.63
2022-11-02T15:36:41.736Z,48.18
2022-11-02T15:39:12.662Z,49.11
2022-11-02T15:42:27.563Z,49.24
2022-11-02T15:45:56.593Z,49.40
2022-11-02T15:49:02.584Z,49.87
2022-11-02T15:52:10.925Z,50.24
2022-11-02T15:55:19.351Z,50.23
2022-11-02T15:58:39.782Z,50.18
2022-11-02T16:01:25.195Z,50.72
2022-11-02T16:04:07.066Z,51.15
2022-11-02T16:06:44.507Z,51.08
2022-11-02T16:09:39.374Z,51.18
2022-11-02T16:12:25.052Z,51.66
2022-11-02T16:15:20.388Z,51.63
2022-11-02T16:17:51.178Z,51.68
2022-11-02T16:20:34.081Z,51.95
2022-11-02T16:23:05.451Z,52.36
2022-11-02T16:25:44.756Z,52.62
2022-11-02T16:28:35.481Z,53.30
2022-11-02T16:31:25.110Z,53.70
2022-11-02T16:33:57.263Z,53.57
2022-11-02T16:36:35.204Z,53.46
2022-11-02T16:39:30.445Z,54.10
2022-11-02T16:42:00.588Z,53.68
2022-11-02T16:44:34.990Z,53.78
2022-11-02T16:47:08.303Z,54.01
2022-11-02T16:49:50.954Z,54.24
2022-11-02T16:52:38.598Z,54.53
2022-11-02T16:55:43.502Z,54.49
2022-11-02T16:58:22.600Z,54.45
2022-11-02T17:01:05.501Z,54.91
2022-11-02T17:03:34.783Z,55.33
2022-11-02T17:06:07.528Z,55.46
2022-11-02T17:08:39.151Z,55.75
2022-11-02T17:11:14.487Z,56.19
2022-11-02T17:13:56.911Z,56.74
2022-11-02T17:16:24.255Z,57.26
2022-11-02T17:18:51.590Z,57.15
2022-11-02T17:21:28.878Z,57.13
2022-11-02T17:23:59.117Z,57.87
2022-11-02T17:26:36.687Z,57.89
2022-11-02T17:29:26.549Z,58.31
2022-11-02T17:31:58.012Z,58.05
2022-11-02T17:34:25.576Z,58.38
2022-11-02T17:36:53.420Z,58.29
2022-11-02T17:39:21.210Z,59.05
2022-11-02T17:42:16.492Z,59.32
2022-11-02T17:44:47.704Z,58.82
2022-11-02T17:47:19.654Z,59.70
2022-11-02T17:49:46.982Z,59.28
2022-11-02T17:52:16.487Z,60.34
2022-11-02T17:54:43.965Z,60.31
2022-11-02T17:57:15.614Z,60.70
2022-11-02T17:59:42.935Z,60.77
2022-11-02T18:02:15.853Z,60.45
2022-11-02T18:07:30.917Z,60.83
2022-11-02T18:09:58.285Z,61.08
2022-11-02T18:12:25.543Z,61.40
2022-11-02T18:14:52.808Z,61.21
2022-11-02T18:17:20.099Z,62.31
2022-11-02T18:19:47.361Z,62.27
2022-11-02T18:22:15.552Z,61.79
2022-11-02T18:24:43.113Z,61.97
2022-11-02T18:27:10.373Z,62.07
2022-11-02T18:29:38.071Z,61.92
2022-11-02T18:32:05.491Z,62.71
2022-11-02T18:34:32.831Z,63.27
2022-11-02T18:37:00.306Z,63.02
2022-11-02T18:39:27.554Z,63.44
2022-11-02T18:41:54.853Z,63.51
2022-11-02T18:44:22.945Z,63.93
2022-11-02T18:46:50.202Z,64.30
2022-11-02T18:49:17.450Z,64.11
2022-11-02T18:51:45.741Z,64.37
2022-11-02T18:54:13.146Z,64.22
2022-11-02T18:56:40.431Z,64.26
2022-11-02T18:59:07.761Z,64.16
2022-11-02T19:01:35.322Z,64.50
2022-11-02T19:04:03.655Z,64.91
2022-11-02T19:06:54.098Z,64.96
2022-11-02T19:09:26.655Z,64.79
2022-11-02T19:12:16.344Z,64.95
2022-11-02T19:14:47.637Z,64.92
2022-11-02T19:17:15.560Z,64.85
2022-11-02T19:19:45.473Z,65.26
2022-11-02T19:22:23.406Z,65.93
2022-11-02T19:24:51.843Z,65.33
2022-11-02T19:27:25.456Z,66.42
2022-11-02T19:29:52.865Z,65.77
2022-11-02T19:32:21.138Z,66.51
2022-11-02T19:34:48.517Z,66.02
2022-11-02T19:37:15.788Z,66.39
2022-11-02T19:39:43.049Z,66.44
2022-11-02T19:42:10.649Z,66.49
2022-11-02T19:44:42.536Z,66.25
2022-11-02T19:47:14.178Z,66.96
2022-11-02T19:49:41.427Z,67.09
2022-11-02T19:52:10.511Z,67.39
2022-11-02T19:54:37.869Z,67.15
2022-11-02T19:57:05.118Z,67.63
2022-11-02T19:59:32.380Z,67.01
2022-11-02T20:02:00.488Z,66.95
2022-11-02T20:04:27.868Z,67.14
2022-11-02T20:06:55.194Z,67.14
2022-11-02T20:09:22.519Z,67.81
2022-11-02T20:11:49.948Z,67.09
2022-11-02T20:14:18.453Z,67.04
2022-11-02T20:16:58.348Z,67.81
2022-11-02T20:19:32.003Z,68.04
2022-11-02T20:21:59.270Z,67.62
2022-11-02T20:24:29.166Z,67.33
2022-11-02T20:27:02.608Z,68.71
2022-11-02T20:29:30.137Z,68.39
2022-11-02T20:31:57.383Z,68.34
2022-11-02T20:34:24.779Z,68.14
2022-11-02T20:36:52.113Z,68.65
2022-11-02T20:39:19.681Z,68.20
2022-11-02T20:41:47.940Z,68.35
2022-11-02T20:44:17.006Z,68.02
2022-11-02T20:46:52.790Z,68.55
2022-11-02T20:49:48.322Z,68.26
2022-11-02T20:52:10.853Z,68.65
2022-11-02T20:54:38.164Z,68.36
2022-11-02T20:57:06.013Z,68.14
2022-11-02T20:59:35.944Z,68.62
2022-11-02T21:02:03.310Z,68.94
2022-11-02T21:04:30.695Z,68.88
2022-11-02T21:06:57.971Z,69.28
2022-11-02T21:09:25.291Z,68.99
2022-11-02T21:12:11.187Z,69.26
2022-11-02T21:14:38.466Z,68.91
2022-11-02T21:17:07.427Z,69.00
2022-11-02T21:19:34.743Z,69.14
2022-11-02T21:22:02.550Z,69.23
2022-11-02T21:24:29.903Z,69.06
2022-11-02T21:26:58.265Z,69.38
2022-11-02T21:29:25.627Z,68.86
2022-11-02T21:31:52.958Z,69.39
2022-11-02T21:34:20.235Z,69.01
2022-11-02T21:36:48.717Z,69.73
2022-11-02T21:39:16.242Z,69.36
2022-11-02T21:41:43.762Z,68.87
2022-11-02T21:44:11.993Z,69.02
2022-11-02T21:46:39.280Z,69.20
2022-11-02T21:49:06.691Z,69.11
2022-11-02T21:51:34.798Z,69.44
2022-11-02T21:54:04.051Z,69.59
2022-11-02T21:56:32.006Z,69.60
2022-11-02T21:58:59.529Z,69.94
2022-11-02T22:01:49.426Z,69.75
2022-11-02T22:04:31.615Z,69.67
2022-11-02T22:07:02.024Z,69.12
2022-11-02T22:09:29.803Z,69.20
2022-11-02T22:12:16.024Z,69.97
2022-11-02T22:14:44.844Z,70.45
2022-11-02T22:17:43.122Z,70.20
2022-11-02T22:20:02.730Z,70.26
2022-11-02T22:22:30.104Z,69.91
2022-11-02T22:24:57.418Z,70.22
2022-11-02T22:27:24.726Z,70.21
2022-11-02T22:29:51.989Z,70.04
2022-11-02T22:32:19.255Z,70.40
2022-11-02T22:34:46.903Z,69.72
2022-11-02T22:37:32.843Z,70.65
2022-11-02T22:40:00.913Z,70.00
2022-11-02T22:42:28.176Z,70.52
2022-11-02T22:44:58.345Z,70.07
2022-11-02T22:47:25.624Z,70.48
2022-11-02T22:49:52.935Z,70.16
2022-11-02T22:52:20.219Z,70.55
2022-11-02T22:54:47.844Z,70.91
2022-11-02T22:57:15.175Z,70.21
2022-11-02T22:59:42.446Z,70.20
2022-11-02T23:02:10.559Z,70.14
2022-11-02T23:04:37.877Z,70.44
2022-11-02T23:07:05.151Z,70.52
2022-11-02T23:09:32.422Z,70.88
2022-11-02T23:11:59.675Z,71.16
2022-11-02T23:14:26.927Z,70.96
2022-11-02T23:16:54.420Z,70.69
2022-11-02T23:19:28.253Z,70.60
2022-11-02T23:22:32.051Z,71.06
2022-11-02T23:25:18.910Z,71.10
2022-11-02T23:28:16.667Z,71.04
2022-11-02T23:31:03.403Z,71.13
2022-11-02T23:33:37.011Z,70.83
2022-11-02T23:36:12.630Z,72.01
2022-11-02T23:39:03.102Z,71.14
2022-11-02T23:41:33.897Z,71.21
2022-11-02T23:44:18.847Z,70.93
2022-11-02T23:46:51.056Z,71.06
2022-11-02T23:49:19.296Z,71.85
2022-11-02T23:52:05.170Z,72.02
2022-11-02T23:54:51.132Z,71.70
2022-11-02T23:57:19.279Z,71.68
2022-11-02T23:59:46.530Z,71.86
